Sheridan, WY

12:52 PM MDT on August 22, 2014 (GMT -0600)
South Big Horn County | Change Station
CLOSE
Current Station
Airport
Location: Greybull,
Elevation: 3934 ft
Nearby Weather Stations

Elev 3934 ft 44.52 °N, 108.08 °W | Updated 59 minutes ago

Overcast
Overcast
65 °F
Feels Like 65 °F
N
4
Wind Variable Wind from NE

Today
High -- | Low -- °F
--% Chance of Precip.
Yesterday
High -- | Low -- °F
Precip. -- in
6:18 AM 8:02 PM
Waning Crescent, 7% visible
Pressure 29.98 in
Visibility 10.0 miles
Clouds Few 1900 ft
Overcast 9500 ft
Dew Point 53 °F
Humidity 65%
Rainfall 0.03 in
Snow Depth Not available.
UV 3 out of 12
Pollen 6.70 out of 12
Air Quality Not available.
Flu Activity Not available.
METAR KGEY 221753Z AUTO 04003KT 10SM FEW019 OVC095 18/12 A3005 RMK AO2 SLP152 60003 T01830117 10183 20133 58013

More Conditions Fewer Conditions

Pressure 29.98 in
Visibility 10.0 miles
Clouds Few 1900 ft
Overcast 9500 ft
Dew Point 53 °F
Humidity 65%
Rainfall 0.03 in
Snow Depth Not available.
UV 3 out of 12
Pollen 6.70 out of 12
Air Quality Not available.
Flu Activity Not available.
METAR KGEY 221753Z AUTO 04003KT 10SM FEW019 OVC095 18/12 A3005 RMK AO2 SLP152 60003 T01830117 10183 20133 58013

More Conditions Fewer Conditions

10-Day Weather Forecast

Almanac

Astronomy

Aug. 22, 2014 Rise Set
Actual Time 6:18 AM MDT 8:02 PM MDT
Civil Twilight 5:47 AM MDT 8:33 PM MDT
Nautical Twilight 5:09 AM MDT 9:10 PM MDT
Astronomical Twilight 4:28 AM MDT 9:51 PM MDT
Moon 3:40 AM MDT 6:14 PM MDT
Length of Visible Light 14h 45m
Length of Day
13h 43m
Tomorrow will be 2m 54s shorter.
Waning Crescent, 7% of the Moon is Illuminated
Today
Waning Crescent
Aug 25
New
Sep 2
First Quarter
Sep 8
Full
Sep 15
Last Quarter

Today's Extremes

State Highs State Lows

Community

WunderPhotos

Upload Photos

1,746,216 photos uploaded!

Nearby

Snow Depth

Station Depth Elevation
Burgess Junction 0 in 7880 ft
Bone Springs Divide 0 in 9350 ft
Bald Mountain 1 in 9380 ft
Grave Springs 1 in 8550 ft
Cole Canyon 0 in 5910 ft

Earthquake Activity

City Distance Mag. Time & Date
No recent earthquake activity has been reported nearby.
Minimum magnitude displayed is 2.5.

Coastal Water Temperatures

Place Temperature
No Stations Reporting

Nearby Weather Stations